createdAt,value
2018-08-23T00:01:32.955Z,99749.91
2018-08-23T00:04:05.058Z,99749.64
2018-08-23T00:06:34.137Z,99753.64
2018-08-23T00:09:03.879Z,99748.98
2018-08-23T00:11:34.698Z,99743.87
2018-08-23T00:14:03.711Z,99745.25
2018-08-23T00:16:38.056Z,99745.97
2018-08-23T00:19:07.171Z,99739.73
2018-08-23T00:21:42.431Z,99742.40
2018-08-23T00:24:17.111Z,99745.73
2018-08-23T00:26:48.939Z,99744.41
2018-08-23T00:29:22.416Z,99745.75
2018-08-23T00:31:51.646Z,99750.73
2018-08-23T00:34:21.438Z,99745.80
2018-08-23T00:36:50.763Z,99748.09
2018-08-23T00:39:20.024Z,99748.94
2018-08-23T00:41:54.410Z,99746.83
2018-08-23T00:44:23.419Z,99746.52
2018-08-23T00:46:54.031Z,99740.53
2018-08-23T00:49:26.222Z,99750.59
2018-08-23T00:51:55.228Z,99750.97
2018-08-23T00:54:25.698Z,99751.30
2018-08-23T00:56:54.718Z,99746.38
2018-08-23T00:59:23.850Z,99746.23
2018-08-23T01:02:08.295Z,99748.92
2018-08-23T01:04:40.541Z,99745.16
2018-08-23T01:07:09.561Z,99743.38
2018-08-23T01:09:42.524Z,99740.11
2018-08-23T01:12:12.172Z,99742.75
2018-08-23T01:14:41.339Z,99744.09
2018-08-23T01:17:16.432Z,99739.50
2018-08-23T01:19:50.880Z,99738.69
2018-08-23T01:22:20.000Z,99736.88
2018-08-23T01:24:50.080Z,99733.93
2018-08-23T01:27:25.251Z,99735.58
2018-08-23T01:29:54.678Z,99728.49
2018-08-23T01:32:29.139Z,99728.00
2018-08-23T01:34:58.155Z,99726.34
2018-08-23T01:37:34.756Z,99726.02
2018-08-23T01:40:05.556Z,99719.49
2018-08-23T01:42:35.872Z,99722.83
2018-08-23T01:45:06.053Z,99715.22
2018-08-23T01:47:39.842Z,99717.22
2018-08-23T01:50:09.111Z,99717.42
2018-08-23T01:52:43.544Z,99719.59
2018-08-23T01:55:13.478Z,99716.28
2018-08-23T01:57:43.411Z,99715.65
2018-08-23T02:00:13.607Z,99717.95
2018-08-23T02:02:42.642Z,99719.28
2018-08-23T02:05:11.647Z,99715.31
2018-08-23T02:07:40.678Z,99709.89
2018-08-23T02:10:09.739Z,99714.01
2018-08-23T02:12:38.768Z,99714.36
2018-08-23T02:15:09.727Z,99709.07
2018-08-23T02:17:44.531Z,99705.78
2018-08-23T02:20:13.536Z,99707.42
2018-08-23T02:22:42.583Z,99701.37
2018-08-23T02:25:11.609Z,99700.75
2018-08-23T02:28:12.476Z,99697.92
2018-08-23T02:30:57.174Z,99702.50
2018-08-23T02:33:26.827Z,99699.02
2018-08-23T02:36:08.690Z,99701.84
2018-08-23T02:38:38.431Z,99706.63
2018-08-23T02:41:07.455Z,99709.41
2018-08-23T02:43:36.479Z,99705.80
2018-08-23T02:46:05.483Z,99710.59
2018-08-23T02:48:34.580Z,99702.19
2018-08-23T02:51:03.587Z,99702.19
2018-08-23T02:53:35.023Z,99699.91
2018-08-23T02:56:05.179Z,99692.78
2018-08-23T02:58:37.496Z,99695.89
2018-08-23T03:01:14.907Z,99696.08
2018-08-23T03:03:59.707Z,99703.86
2018-08-23T03:06:34.428Z,99710.44
2018-08-23T03:09:03.816Z,99706.50
2018-08-23T03:11:34.284Z,99706.84
2018-08-23T03:14:05.076Z,99707.52
2018-08-23T03:16:46.947Z,99709.67
2018-08-23T03:19:16.076Z,99705.88
2018-08-23T03:21:45.274Z,99709.83
2018-08-23T03:24:18.756Z,99707.34
2018-08-23T03:26:48.235Z,99699.15
2018-08-23T03:29:17.261Z,99699.64
2018-08-23T03:31:46.275Z,99698.67
2018-08-23T03:34:15.571Z,99705.25
2018-08-23T03:36:44.597Z,99710.18
2018-08-23T03:39:13.618Z,99703.94
2018-08-23T03:41:42.635Z,99705.59
2018-08-23T03:44:22.967Z,99706.23
2018-08-23T03:46:53.603Z,99715.09
2018-08-23T03:49:31.083Z,99706.50
2018-08-23T03:52:00.338Z,99703.92
2018-08-23T03:54:30.536Z,99707.19
2018-08-23T03:57:13.787Z,99707.53
2018-08-23T03:59:46.908Z,99708.50
2018-08-23T04:02:17.008Z,99709.48
2018-08-23T04:04:47.477Z,99708.16
2018-08-23T04:07:16.742Z,99709.48
2018-08-23T04:09:45.852Z,99704.91
2018-08-23T04:12:16.739Z,99702.11
2018-08-23T04:14:45.769Z,99701.09
2018-08-23T04:17:14.903Z,99698.59
2018-08-23T04:19:49.767Z,99700.72
2018-08-23T04:22:18.809Z,99697.28
2018-08-23T04:24:52.819Z,99702.39
2018-08-23T04:27:21.905Z,99702.56
2018-08-23T04:29:50.903Z,99698.67
2018-08-23T04:32:29.991Z,99698.19
2018-08-23T04:35:01.111Z,99704.63
2018-08-23T04:37:30.917Z,99713.55
2018-08-23T04:40:03.156Z,99713.22
2018-08-23T04:42:34.021Z,99710.57
2018-08-23T04:45:09.135Z,99712.83
2018-08-23T04:48:08.574Z,99715.64
2018-08-23T04:50:38.736Z,99715.64
2018-08-23T04:53:07.760Z,99719.09
2018-08-23T04:55:36.771Z,99716.27
2018-08-23T04:58:06.028Z,99724.31
2018-08-23T05:00:35.048Z,99726.27
2018-08-23T05:03:04.166Z,99720.99
2018-08-23T05:05:33.171Z,99715.89
2018-08-23T05:08:02.272Z,99721.30
2018-08-23T05:10:31.299Z,99732.46
2018-08-23T05:13:00.453Z,99734.11
2018-08-23T05:15:29.483Z,99731.12
2018-08-23T05:17:58.506Z,99733.89
2018-08-23T05:20:27.524Z,99728.77
2018-08-23T05:23:01.850Z,99727.27
2018-08-23T05:25:30.785Z,99729.50
2018-08-23T05:28:15.515Z,99732.66
2018-08-23T05:30:45.519Z,99735.25
2018-08-23T05:33:15.536Z,99727.31
2018-08-23T05:35:44.718Z,99732.59
2018-08-23T05:38:14.391Z,99731.60
2018-08-23T05:40:49.624Z,99729.25
2018-08-23T05:43:18.643Z,99726.19
2018-08-23T05:45:48.859Z,99728.59
2018-08-23T05:48:35.584Z,99738.05
2018-08-23T05:51:12.666Z,99734.66
2018-08-23T05:53:43.135Z,99735.77
2018-08-23T05:56:12.175Z,99740.04
2018-08-23T05:58:41.191Z,99731.54
2018-08-23T06:01:10.203Z,99728.84
2018-08-23T06:03:39.425Z,99724.73
2018-08-23T06:06:08.835Z,99718.66
2018-08-23T06:08:42.943Z,99721.36
2018-08-23T06:11:12.431Z,99731.41
2018-08-23T06:13:41.447Z,99721.91
2018-08-23T06:16:10.464Z,99720.91
2018-08-23T06:18:39.515Z,99714.26
2018-08-23T06:21:08.511Z,99707.72
2018-08-23T06:24:00.124Z,99706.42
2018-08-23T06:26:32.284Z,99708.41
2018-08-23T06:29:01.341Z,99708.62
2018-08-23T06:31:30.339Z,99703.78
2018-08-23T06:33:59.647Z,99699.59
2018-08-23T06:36:29.925Z,99704.48
2018-08-23T06:39:00.959Z,99705.25
2018-08-23T06:41:30.197Z,99699.75
2018-08-23T06:43:59.438Z,99699.51
2018-08-23T06:46:28.452Z,99700.06
2018-08-23T06:48:57.569Z,99705.25
2018-08-23T06:51:26.503Z,99709.36
2018-08-23T06:53:59.698Z,99708.36
2018-08-23T06:56:28.785Z,99712.56
2018-08-23T06:58:57.899Z,99712.30
2018-08-23T07:01:37.753Z,99709.03
2018-08-23T07:04:08.497Z,99708.87
2018-08-23T07:06:37.604Z,99705.99
2018-08-23T07:09:09.367Z,99706.40
2018-08-23T07:11:38.441Z,99707.61
2018-08-23T07:14:12.584Z,99703.31
2018-08-23T07:16:42.942Z,99705.17
2018-08-23T07:19:29.096Z,99706.59
2018-08-23T07:22:00.541Z,99707.47
2018-08-23T07:24:44.363Z,99702.55
2018-08-23T07:27:14.504Z,99703.77
2018-08-23T07:29:46.860Z,99705.36
2018-08-23T07:32:17.864Z,99713.03
2018-08-23T07:35:01.837Z,99716.34
2018-08-23T07:40:10.299Z,99716.50
2018-08-23T07:42:40.328Z,99722.00
2018-08-23T07:45:09.765Z,99723.36
2018-08-23T07:47:41.399Z,99723.59
2018-08-23T07:50:10.500Z,99717.56
2018-08-23T07:52:42.078Z,99710.47
2018-08-23T07:55:11.149Z,99713.45
2018-08-23T07:57:40.581Z,99707.55
2018-08-23T08:00:29.628Z,99705.91
2018-08-23T08:02:58.791Z,99705.91
2018-08-23T08:05:33.724Z,99705.70
2018-08-23T08:08:03.024Z,99709.59
2018-08-23T08:10:36.904Z,99709.33
2018-08-23T08:13:06.008Z,99706.42
2018-08-23T08:15:35.034Z,99711.10
2018-08-23T08:18:16.817Z,99716.12
2018-08-23T08:20:51.528Z,99711.13
2018-08-23T08:23:20.507Z,99719.48
2018-08-23T08:25:49.529Z,99721.64
2018-08-23T08:28:19.067Z,99714.49
2018-08-23T08:30:48.678Z,99715.89
2018-08-23T08:33:20.895Z,99716.57
2018-08-23T08:35:50.779Z,99718.03
2018-08-23T08:38:19.883Z,99713.01
2018-08-23T08:40:51.296Z,99715.61
2018-08-23T08:43:20.325Z,99711.67
2018-08-23T08:45:53.600Z,99711.55
2018-08-23T08:48:29.782Z,99708.89
2018-08-23T08:51:15.703Z,99704.27
2018-08-23T08:53:45.132Z,99703.37
2018-08-23T08:56:14.142Z,99700.86
2018-08-23T08:58:43.576Z,99699.98
2018-08-23T09:01:12.595Z,99703.69
2018-08-23T09:03:41.671Z,99694.75
2018-08-23T09:06:11.427Z,99698.19
2018-08-23T09:08:40.538Z,99689.07
2018-08-23T09:11:09.560Z,99698.23
2018-08-23T09:13:43.803Z,99693.23
2018-08-23T09:16:12.815Z,99693.38
2018-08-23T09:18:42.894Z,99688.80
2018-08-23T09:21:11.848Z,99685.09
2018-08-23T09:23:41.153Z,99684.38
2018-08-23T09:26:10.187Z,99684.84
2018-08-23T09:28:39.231Z,99676.88
2018-08-23T09:31:08.282Z,99676.37
2018-08-23T09:33:37.390Z,99678.90
2018-08-23T09:36:06.592Z,99686.23
2018-08-23T09:38:35.617Z,99682.96
2018-08-23T09:41:04.656Z,99683.75
2018-08-23T09:43:33.787Z,99680.86
2018-08-23T09:46:03.150Z,99674.49
2018-08-23T09:48:32.158Z,99673.50
2018-08-23T09:51:01.421Z,99671.91
2018-08-23T09:53:30.407Z,99672.67
2018-08-23T09:55:59.435Z,99669.73
2018-08-23T09:58:33.812Z,99663.26
2018-08-23T10:01:08.237Z,99662.55
2018-08-23T10:03:42.588Z,99666.66
2018-08-23T10:07:16.915Z,99660.60
2018-08-23T10:10:49.468Z,99653.20
2018-08-23T10:13:23.988Z,99641.67
2018-08-23T10:15:58.383Z,99638.12
2018-08-23T10:18:32.744Z,99637.12
2018-08-23T10:21:02.951Z,99633.33
2018-08-23T10:23:31.992Z,99625.94
2018-08-23T10:26:06.445Z,99623.02
2018-08-23T10:28:40.947Z,99626.30
2018-08-23T10:31:11.598Z,99622.47
2018-08-23T10:33:40.643Z,99618.84
2018-08-23T10:36:09.687Z,99613.36
2018-08-23T10:38:38.703Z,99610.42
2018-08-23T10:41:08.295Z,99614.71
2018-08-23T10:43:44.275Z,99612.59
2018-08-23T10:46:13.308Z,99613.99
2018-08-23T10:48:42.355Z,99614.23
2018-08-23T10:51:13.274Z,99614.22
2018-08-23T10:53:42.207Z,99601.91
2018-08-23T10:56:11.357Z,99611.80
2018-08-23T10:58:40.323Z,99604.31
2018-08-23T11:01:09.389Z,99601.81
2018-08-23T11:03:38.384Z,99595.58
2018-08-23T11:06:07.409Z,99593.72
2018-08-23T11:08:37.826Z,99595.35
2018-08-23T11:11:13.448Z,99593.40
2018-08-23T11:13:47.632Z,99595.49
2018-08-23T11:16:22.133Z,99591.16
2018-08-23T11:18:56.722Z,99585.43
2018-08-23T11:21:27.259Z,99578.99
2018-08-23T11:23:56.270Z,99585.94
2018-08-23T11:26:28.882Z,99585.12
2018-08-23T11:28:57.961Z,99584.30
2018-08-23T11:31:30.983Z,99573.06
2018-08-23T11:34:00.140Z,99571.06
2018-08-23T11:36:29.233Z,99568.38
2018-08-23T11:38:58.251Z,99580.98
2018-08-23T11:41:28.811Z,99560.22
2018-08-23T11:46:33.067Z,99545.63
2018-08-23T11:49:02.163Z,99553.98
2018-08-23T11:51:31.239Z,99549.94
2018-08-23T11:54:00.286Z,99546.97
2018-08-23T11:56:30.343Z,99549.95
2018-08-23T11:58:59.371Z,99535.05
2018-08-23T12:01:28.361Z,99528.91
2018-08-23T12:03:57.443Z,99528.37
2018-08-23T12:06:26.487Z,99519.17
2018-08-23T12:08:55.506Z,99518.12
2018-08-23T12:11:24.518Z,99511.60
2018-08-23T12:13:53.540Z,99515.92
2018-08-23T12:16:22.532Z,99514.58
2018-08-23T12:18:51.559Z,99504.58
2018-08-23T12:21:20.631Z,99506.17
2018-08-23T12:23:50.669Z,99508.88
2018-08-23T12:26:19.778Z,99508.84
2018-08-23T12:28:54.022Z,99506.37
2018-08-23T12:31:23.034Z,99503.16
2018-08-23T12:33:52.103Z,99497.48
2018-08-23T12:36:26.342Z,99502.60
2018-08-23T12:39:00.739Z,99492.08
2018-08-23T12:41:35.134Z,99501.81
2018-08-23T12:44:04.404Z,99492.19
2018-08-23T12:46:33.499Z,99490.29
2018-08-23T12:49:02.586Z,99485.93
2018-08-23T12:51:31.569Z,99478.17
2018-08-23T12:54:00.602Z,99475.44
2018-08-23T12:56:29.684Z,99461.80
2018-08-23T12:58:58.663Z,99470.98
2018-08-23T13:01:27.772Z,99473.06
2018-08-23T13:03:56.897Z,99467.97
2018-08-23T13:06:25.882Z,99466.33
2018-08-23T13:08:54.883Z,99457.59
2018-08-23T13:11:23.895Z,99455.13
2018-08-23T13:13:52.916Z,99459.59
2018-08-23T13:16:21.932Z,99452.87
2018-08-23T13:18:50.959Z,99458.00
2018-08-23T13:21:20.081Z,99446.92
2018-08-23T13:23:49.099Z,99442.41
2018-08-23T13:26:18.133Z,99448.74
2018-08-23T13:28:47.127Z,99439.36
2018-08-23T13:31:16.119Z,99443.19
2018-08-23T13:33:45.230Z,99436.73
2018-08-23T13:36:14.274Z,99428.61
2018-08-23T13:38:43.323Z,99418.38
2018-08-23T13:41:12.328Z,99421.33
2018-08-23T13:43:41.437Z,99416.52
2018-08-23T13:46:10.487Z,99416.27
2018-08-23T13:48:39.511Z,99406.78
2018-08-23T13:51:08.543Z,99406.51
2018-08-23T13:53:37.555Z,99397.36
2018-08-23T13:56:06.907Z,99397.68
2018-08-23T13:58:35.920Z,99386.09
2018-08-23T14:01:04.964Z,99393.58
2018-08-23T14:03:34.343Z,99389.80
2018-08-23T14:06:03.448Z,99390.84
2018-08-23T14:08:32.432Z,99386.75
2018-08-23T14:11:01.535Z,99396.14
2018-08-23T14:13:30.467Z,99389.91
2018-08-23T14:16:03.375Z,99389.13
2018-08-23T14:18:33.481Z,99390.72
2018-08-23T14:21:02.838Z,99385.38
2018-08-23T14:23:31.857Z,99383.31
2018-08-23T14:26:00.907Z,99384.37
2018-08-23T14:28:30.120Z,99381.90
2018-08-23T14:30:59.151Z,99378.41
2018-08-23T14:33:28.275Z,99381.70
2018-08-23T14:35:57.469Z,99382.80
2018-08-23T14:38:26.574Z,99367.17
2018-08-23T14:40:55.532Z,99365.05
2018-08-23T14:43:24.570Z,99359.14
2018-08-23T14:45:57.726Z,99349.70
2018-08-23T14:48:26.752Z,99342.71
2018-08-23T14:50:55.772Z,99335.41
2018-08-23T14:53:25.954Z,99334.36
2018-08-23T14:56:00.252Z,99339.23
2018-08-23T14:58:29.619Z,99342.45
2018-08-23T15:00:58.746Z,99329.50
2018-08-23T15:03:27.743Z,99333.55
2018-08-23T15:05:56.811Z,99327.28
2018-08-23T15:08:25.905Z,99324.03
2018-08-23T15:10:54.915Z,99322.52
2018-08-23T15:13:24.015Z,99310.66
2018-08-23T15:15:53.730Z,99314.39
2018-08-23T15:18:23.191Z,99303.31
2018-08-23T15:20:52.320Z,99303.23
2018-08-23T15:23:21.278Z,99309.31
2018-08-23T15:25:50.307Z,99295.73
2018-08-23T15:28:19.427Z,99296.91
2018-08-23T15:30:48.434Z,99298.34
2018-08-23T15:33:17.523Z,99298.66
2018-08-23T15:35:46.643Z,99294.71
2018-08-23T15:38:15.681Z,99292.08
2018-08-23T15:40:44.885Z,99295.30
2018-08-23T15:43:13.843Z,99293.97
2018-08-23T15:45:42.855Z,99298.83
2018-08-23T15:48:11.870Z,99298.78
2018-08-23T15:50:40.916Z,99293.66
2018-08-23T15:53:09.924Z,99293.91
2018-08-23T15:55:39.104Z,99289.14
2018-08-23T15:58:08.188Z,99289.39
2018-08-23T16:00:38.679Z,99292.36
2018-08-23T16:03:08.085Z,99297.73
2018-08-23T16:05:37.752Z,99292.02
2018-08-23T16:08:07.088Z,99289.58
2018-08-23T16:10:36.305Z,99289.03
2018-08-23T16:13:05.551Z,99288.75
2018-08-23T16:15:34.700Z,99290.06
2018-08-23T16:18:08.911Z,99290.77
2018-08-23T16:20:43.256Z,99290.72
2018-08-23T16:23:12.274Z,99289.89
2018-08-23T16:25:43.496Z,99283.19
2018-08-23T16:28:12.808Z,99289.38
2018-08-23T16:30:47.341Z,99289.95
2018-08-23T16:33:16.372Z,99283.80
2018-08-23T16:35:45.463Z,99287.18
2018-08-23T16:38:14.468Z,99287.50
2018-08-23T16:40:43.511Z,99279.45
2018-08-23T16:43:12.548Z,99278.38
2018-08-23T16:45:41.623Z,99264.38
2018-08-23T16:48:10.798Z,99265.99
2018-08-23T16:50:39.859Z,99264.37
2018-08-23T16:53:08.965Z,99265.45
2018-08-23T16:55:37.949Z,99268.93
2018-08-23T16:58:07.018Z,99257.09
2018-08-23T17:00:36.228Z,99257.13
2018-08-23T17:03:05.353Z,99256.53
2018-08-23T17:05:34.444Z,99262.97
2018-08-23T17:08:03.554Z,99256.20
2018-08-23T17:10:32.592Z,99256.08
2018-08-23T17:13:01.622Z,99265.09
2018-08-23T17:15:35.883Z,99265.25
2018-08-23T17:18:05.198Z,99260.51
2018-08-23T17:20:34.107Z,99253.59
2018-08-23T17:23:03.227Z,99244.84
2018-08-23T17:25:32.243Z,99253.68
2018-08-23T17:28:01.451Z,99250.28
2018-08-23T17:30:30.455Z,99255.38
2018-08-23T17:32:59.490Z,99251.22
2018-08-23T17:35:28.532Z,99251.77
2018-08-23T17:37:57.588Z,99250.12
2018-08-23T17:40:26.608Z,99258.56
2018-08-23T17:42:55.777Z,99264.27
2018-08-23T17:45:24.807Z,99272.20
2018-08-23T17:47:56.815Z,99277.55
2018-08-23T17:50:25.931Z,99279.52
2018-08-23T17:52:54.978Z,99281.77
2018-08-23T17:55:24.032Z,99280.92
2018-08-23T17:57:53.226Z,99285.67
2018-08-23T18:00:22.422Z,99288.20
2018-08-23T18:02:51.432Z,99275.99
2018-08-23T18:05:20.526Z,99269.73
2018-08-23T18:07:49.548Z,99274.03
2018-08-23T18:10:18.572Z,99277.19
2018-08-23T18:12:47.602Z,99282.86
2018-08-23T18:15:16.823Z,99286.96
2018-08-23T18:17:45.929Z,99293.20
2018-08-23T18:20:14.973Z,99294.53
2018-08-23T18:22:43.976Z,99302.52
2018-08-23T18:25:13.117Z,99309.65
2018-08-23T18:27:42.108Z,99309.88
2018-08-23T18:30:11.512Z,99310.25
2018-08-23T18:32:40.535Z,99301.34
2018-08-23T18:35:09.571Z,99309.14
2018-08-23T18:37:38.719Z,99317.09
2018-08-23T18:40:07.729Z,99342.48
2018-08-23T18:42:36.850Z,99379.25
2018-08-23T18:45:06.008Z,99379.16
2018-08-23T18:47:35.028Z,99382.58
2018-08-23T18:50:04.043Z,99433.39
2018-08-23T18:52:33.069Z,99468.45
2018-08-23T18:55:02.215Z,99509.16
2018-08-23T18:57:31.327Z,99719.80
2018-08-23T19:00:00.496Z,99590.24
2018-08-23T19:02:29.420Z,99480.75
2018-08-23T19:04:58.542Z,99466.53
2018-08-23T19:07:32.920Z,99459.08
2018-08-23T19:10:01.984Z,99455.65
2018-08-23T19:12:31.407Z,99461.75
2018-08-23T19:15:00.443Z,99472.72
2018-08-23T19:17:33.027Z,99469.84
2018-08-23T19:20:02.054Z,99470.56
2018-08-23T19:22:31.072Z,99480.21
2018-08-23T19:25:00.194Z,99488.21
2018-08-23T19:27:29.158Z,99491.17
2018-08-23T19:29:58.195Z,99481.56
2018-08-23T19:32:27.291Z,99472.04
2018-08-23T19:34:56.454Z,99457.31
2018-08-23T19:37:25.483Z,99467.58
2018-08-23T19:39:54.735Z,99469.40
2018-08-23T19:42:23.795Z,99481.27
2018-08-23T19:45:01.035Z,99458.39
2018-08-23T19:47:35.495Z,99457.23
2018-08-23T19:50:08.431Z,99463.09
2018-08-23T19:52:37.439Z,99476.49
2018-08-23T19:55:07.864Z,99479.46
2018-08-23T19:57:37.029Z,99481.93
2018-08-23T20:00:07.596Z,99486.85
2018-08-23T20:02:36.619Z,99482.64
2018-08-23T20:05:05.959Z,99489.56
2018-08-23T20:07:35.499Z,99492.21
2018-08-23T20:10:04.756Z,99499.51
2018-08-23T20:12:33.938Z,99492.58
2018-08-23T20:15:02.888Z,99492.29
2018-08-23T20:17:32.660Z,99485.98
2018-08-23T20:20:01.700Z,99488.91
2018-08-23T20:22:30.732Z,99484.45
2018-08-23T20:24:59.895Z,99485.61
2018-08-23T20:27:28.871Z,99487.58
2018-08-23T20:29:57.944Z,99488.58
2018-08-23T20:32:26.989Z,99477.02
2018-08-23T20:34:56.017Z,99473.73
2018-08-23T20:37:25.071Z,99475.00
2018-08-23T20:39:54.170Z,99479.29
2018-08-23T20:42:23.168Z,99479.02
2018-08-23T20:44:52.209Z,99489.85
2018-08-23T20:47:21.297Z,99489.85
2018-08-23T20:49:50.353Z,99490.18
2018-08-23T20:52:19.488Z,99504.33
2018-08-23T20:54:48.707Z,99522.98
2018-08-23T20:57:17.867Z,99539.73
2018-08-23T20:59:46.903Z,99544.39
2018-08-23T21:02:17.453Z,99545.38
2018-08-23T21:04:46.504Z,99558.37
2018-08-23T21:07:15.537Z,99560.64
2018-08-23T21:09:44.604Z,99539.48
2018-08-23T21:12:13.824Z,99509.81
2018-08-23T21:14:42.942Z,99508.50
2018-08-23T21:17:11.959Z,99523.72
2018-08-23T21:19:40.991Z,99532.84
2018-08-23T21:22:10.028Z,99533.33
2018-08-23T21:24:39.055Z,99530.41
2018-08-23T21:27:08.131Z,99525.08
2018-08-23T21:29:37.291Z,99521.95
2018-08-23T21:32:06.463Z,99516.71
2018-08-23T21:34:35.486Z,99504.87
2018-08-23T21:37:04.538Z,99502.84
2018-08-23T21:39:33.603Z,99490.64
2018-08-23T21:42:02.691Z,99465.28
2018-08-23T21:44:31.740Z,99484.73
2018-08-23T21:47:00.759Z,99487.80
2018-08-23T21:49:29.775Z,99477.81
2018-08-23T21:52:00.447Z,99475.30
2018-08-23T21:54:29.460Z,99469.52
2018-08-23T21:56:58.475Z,99467.20
2018-08-23T21:59:27.487Z,99464.61
2018-08-23T22:02:01.831Z,99467.92
2018-08-23T22:04:30.836Z,99473.94
2018-08-23T22:06:59.855Z,99484.50
2018-08-23T22:09:28.882Z,99493.81
2018-08-23T22:11:59.243Z,99496.08
2018-08-23T22:14:28.258Z,99488.33
2018-08-23T22:16:57.283Z,99479.17
2018-08-23T22:19:26.448Z,99480.63
2018-08-23T22:21:56.612Z,99477.66
2018-08-23T22:24:25.632Z,99466.32
2018-08-23T22:26:54.672Z,99468.66
2018-08-23T22:29:23.667Z,99460.55
2018-08-23T22:31:54.118Z,99468.09
2018-08-23T22:34:23.135Z,99475.43
2018-08-23T22:36:52.385Z,99469.33
2018-08-23T22:39:21.433Z,99473.53
2018-08-23T22:41:51.548Z,99476.45
2018-08-23T22:44:20.568Z,99473.20
2018-08-23T22:46:49.587Z,99484.94
2018-08-23T22:49:18.611Z,99477.99
2018-08-23T22:51:49.199Z,99470.88
2018-08-23T22:54:18.254Z,99466.63
2018-08-23T22:56:47.287Z,99463.85
2018-08-23T22:59:16.320Z,99464.55
2018-08-23T23:01:46.838Z,99458.02
2018-08-23T23:04:21.474Z,99468.58
2018-08-23T23:06:50.503Z,99456.88
2018-08-23T23:09:19.511Z,99451.17
2018-08-23T23:11:50.045Z,99457.56
2018-08-23T23:14:19.057Z,99455.86
2018-08-23T23:16:48.075Z,99476.23
2018-08-23T23:19:17.103Z,99482.05
2018-08-23T23:21:46.128Z,99484.43
2018-08-23T23:24:20.603Z,99484.33
2018-08-23T23:26:51.281Z,99479.38
2018-08-23T23:29:20.300Z,99475.66
2018-08-23T23:31:51.042Z,99468.64
2018-08-23T23:34:20.063Z,99461.33
2018-08-23T23:36:49.100Z,99468.28
2018-08-23T23:39:18.325Z,99469.96
2018-08-23T23:41:48.578Z,99457.73
2018-08-23T23:44:17.778Z,99452.69
2018-08-23T23:46:46.804Z,99456.80
2018-08-23T23:49:15.947Z,99453.50
2018-08-23T23:51:46.971Z,99459.93
2018-08-23T23:54:16.295Z,99460.84
2018-08-23T23:56:45.388Z,99462.30
2018-08-23T23:59:14.343Z,99463.78
